createdAt,value
2018-08-25T00:00:43.336Z,950.4
2018-08-25T00:01:43.330Z,950.38
2018-08-25T00:02:43.323Z,950.42
2018-08-25T00:03:43.315Z,950.39
2018-08-25T00:04:43.310Z,950.38
2018-08-25T00:05:43.305Z,950.42
2018-08-25T00:06:43.296Z,950.38
2018-08-25T00:07:43.291Z,950.38
2018-08-25T00:08:43.285Z,950.35
2018-08-25T00:09:43.277Z,950.37
2018-08-25T00:10:43.271Z,950.34
2018-08-25T00:11:43.266Z,950.36
2018-08-25T00:12:43.259Z,950.36
2018-08-25T00:13:43.251Z,950.34
2018-08-25T00:14:43.245Z,950.3
2018-08-25T00:15:43.241Z,950.26
2018-08-25T00:16:43.232Z,950.22
2018-08-25T00:17:43.226Z,950.21
2018-08-25T00:18:43.224Z,950.18
2018-08-25T00:19:43.213Z,950.18
2018-08-25T00:20:43.207Z,950.19
2018-08-25T00:21:43.200Z,950.14
2018-08-25T00:22:43.194Z,950.13
2018-08-25T00:23:43.187Z,950.13
2018-08-25T00:24:43.182Z,950.13
2018-08-25T00:25:43.176Z,950.1
2018-08-25T00:26:43.169Z,950.16
2018-08-25T00:27:43.162Z,950.15
2018-08-25T00:28:43.155Z,950.1
2018-08-25T00:29:43.150Z,950.15
2018-08-25T00:30:43.141Z,950.1
2018-08-25T00:31:43.134Z,950.1
2018-08-25T00:32:43.128Z,950.1
2018-08-25T00:33:43.124Z,950.08
2018-08-25T00:34:43.117Z,950.07
2018-08-25T00:35:43.110Z,950.04
2018-08-25T00:36:43.104Z,950.06
2018-08-25T00:37:43.114Z,950.03
2018-08-25T00:38:43.093Z,950.03
2018-08-25T00:39:43.085Z,950.04
2018-08-25T00:40:43.078Z,949.99
2018-08-25T00:41:43.075Z,950.06
2018-08-25T00:42:43.068Z,950.1
2018-08-25T00:43:43.059Z,950.08
2018-08-25T00:44:43.052Z,950.08
2018-08-25T00:45:43.046Z,950.04
2018-08-25T00:46:43.039Z,950.04
2018-08-25T00:47:43.106Z,950.01
2018-08-25T00:48:43.028Z,949.96
2018-08-25T00:49:43.030Z,949.99
2018-08-25T00:50:43.015Z,949.95
2018-08-25T00:51:43.008Z,949.96
2018-08-25T00:52:43.003Z,949.93
2018-08-25T00:53:42.994Z,949.9
2018-08-25T00:54:42.989Z,949.92
2018-08-25T00:55:42.984Z,949.92
2018-08-25T00:56:42.976Z,949.93
2018-08-25T00:57:42.972Z,949.97
2018-08-25T00:58:42.965Z,949.97
2018-08-25T00:59:42.963Z,950.04
2018-08-25T01:00:42.950Z,950
2018-08-25T01:01:42.944Z,950.04
2018-08-25T01:02:42.937Z,950.08
2018-08-25T01:03:42.931Z,950.11
2018-08-25T01:04:42.922Z,950.13
2018-08-25T01:05:42.920Z,950.18
2018-08-25T01:06:42.910Z,950.18
2018-08-25T01:07:42.905Z,950.2
2018-08-25T01:08:42.897Z,950.24
2018-08-25T01:09:42.893Z,950.24
2018-08-25T01:10:42.885Z,950.23
2018-08-25T01:11:42.881Z,950.24
2018-08-25T01:12:42.872Z,950.22
2018-08-25T01:13:42.867Z,950.22
2018-08-25T01:14:42.861Z,950.21
2018-08-25T01:15:42.911Z,950.18
2018-08-25T01:16:42.847Z,950.17
2018-08-25T01:17:42.840Z,950.14
2018-08-25T01:18:42.832Z,950.15
2018-08-25T01:19:42.826Z,950.21
2018-08-25T01:20:42.819Z,950.3
2018-08-25T01:21:42.814Z,950.43
2018-08-25T01:22:42.805Z,950.44
2018-08-25T01:23:42.801Z,950.46
2018-08-25T01:24:42.795Z,950.46
2018-08-25T01:25:42.787Z,950.41
2018-08-25T01:26:42.781Z,950.4
2018-08-25T01:27:42.773Z,950.34
2018-08-25T01:28:42.768Z,950.3
2018-08-25T01:29:42.761Z,950.29
2018-08-25T01:30:42.753Z,950.3
2018-08-25T01:31:42.746Z,950.29
2018-08-25T01:32:42.742Z,950.33
2018-08-25T01:33:42.732Z,950.25
2018-08-25T01:34:42.726Z,950.31
2018-08-25T01:35:42.719Z,950.31
2018-08-25T01:36:42.714Z,950.24
2018-08-25T01:37:42.707Z,950.21
2018-08-25T01:38:42.699Z,950.2
2018-08-25T01:39:42.693Z,950.16
2018-08-25T01:40:42.687Z,950.15
2018-08-25T01:41:42.679Z,950.13
2018-08-25T01:42:42.680Z,950.11
2018-08-25T01:43:42.667Z,950.08
2018-08-25T01:44:42.657Z,950.13
2018-08-25T01:45:42.651Z,950.12
2018-08-25T01:46:42.645Z,950.16
2018-08-25T01:47:42.638Z,950.08
2018-08-25T01:48:42.630Z,950.06
2018-08-25T01:49:42.623Z,950.03
2018-08-25T01:50:42.617Z,950.03
2018-08-25T01:51:42.609Z,950.05
2018-08-25T01:52:42.602Z,950.03
2018-08-25T01:53:42.596Z,950.05
2018-08-25T01:54:42.590Z,950.04
2018-08-25T01:55:42.582Z,950.03
2018-08-25T01:56:42.575Z,950.02
2018-08-25T01:57:42.570Z,949.99
2018-08-25T01:58:42.562Z,949.96
2018-08-25T01:59:42.555Z,949.87
2018-08-25T02:00:42.548Z,949.85
2018-08-25T02:01:42.542Z,949.87
2018-08-25T02:02:42.614Z,949.83
2018-08-25T02:03:42.528Z,949.85
2018-08-25T02:04:42.522Z,949.82
2018-08-25T02:05:42.514Z,949.8
2018-08-25T02:06:42.507Z,949.82
2018-08-25T02:07:42.501Z,949.76
2018-08-25T02:08:42.493Z,949.75
2018-08-25T02:09:42.486Z,949.76
2018-08-25T02:10:42.483Z,949.72
2018-08-25T02:11:42.476Z,949.7
2018-08-25T02:12:42.467Z,949.69
2018-08-25T02:13:42.460Z,949.64
2018-08-25T02:14:42.461Z,949.71
2018-08-25T02:15:42.449Z,949.59
2018-08-25T02:16:42.439Z,949.61
2018-08-25T02:17:42.430Z,949.6
2018-08-25T02:18:42.427Z,949.62
2018-08-25T02:19:42.417Z,949.59
2018-08-25T02:20:42.411Z,949.57
2018-08-25T02:21:42.404Z,949.58
2018-08-25T02:22:42.397Z,949.52
2018-08-25T02:23:42.391Z,949.47
2018-08-25T02:24:42.384Z,949.44
2018-08-25T02:25:42.377Z,949.42
2018-08-25T02:26:42.368Z,949.34
2018-08-25T02:27:42.362Z,949.39
2018-08-25T02:28:42.355Z,949.34
2018-08-25T02:29:42.348Z,949.34
2018-08-25T02:30:42.342Z,949.36
2018-08-25T02:31:42.334Z,949.36
2018-08-25T02:32:42.326Z,949.35
2018-08-25T02:33:42.319Z,949.29
2018-08-25T02:34:42.312Z,949.26
2018-08-25T02:35:42.305Z,949.28
2018-08-25T02:36:42.298Z,949.28
2018-08-25T02:37:42.292Z,949.24
2018-08-25T02:38:42.367Z,949.22
2018-08-25T02:39:42.276Z,949.24
2018-08-25T02:40:42.270Z,949.27
2018-08-25T02:41:42.262Z,949.25
2018-08-25T02:42:42.260Z,949.27
2018-08-25T02:43:42.248Z,949.27
2018-08-25T02:44:42.241Z,949.28
2018-08-25T02:45:42.235Z,949.27
2018-08-25T02:46:42.226Z,949.29
2018-08-25T02:47:42.221Z,949.26
2018-08-25T02:48:42.211Z,949.28
2018-08-25T02:49:42.207Z,949.24
2018-08-25T02:50:42.197Z,949.24
2018-08-25T02:51:42.190Z,949.26
2018-08-25T02:52:42.185Z,949.28
2018-08-25T02:53:42.178Z,949.29
2018-08-25T02:54:42.168Z,949.28
2018-08-25T02:55:42.162Z,949.24
2018-08-25T02:56:42.155Z,949.27
2018-08-25T02:57:42.149Z,949.25
2018-08-25T02:58:42.142Z,949.24
2018-08-25T02:59:42.135Z,949.23
2018-08-25T03:00:42.129Z,949.21
2018-08-25T03:01:42.120Z,949.2
2018-08-25T03:02:42.110Z,949.2
2018-08-25T03:03:42.104Z,949.18
2018-08-25T03:04:42.101Z,949.17
2018-08-25T03:05:42.096Z,949.16
2018-08-25T03:06:42.082Z,949.12
2018-08-25T03:07:42.075Z,949.17
2018-08-25T03:08:42.068Z,949.16
2018-08-25T03:09:42.059Z,949.18
2018-08-25T03:10:42.052Z,949.16
2018-08-25T03:11:42.046Z,949.18
2018-08-25T03:12:42.038Z,949.18
2018-08-25T03:13:42.093Z,949.18
2018-08-25T03:14:42.024Z,949.16
2018-08-25T03:15:42.017Z,949.2
2018-08-25T03:16:42.008Z,949.12
2018-08-25T03:17:42.000Z,949.12
2018-08-25T03:18:41.993Z,949.12
2018-08-25T03:19:41.984Z,949.1
2018-08-25T03:20:41.979Z,949.15
2018-08-25T03:21:41.971Z,949.1
2018-08-25T03:22:41.963Z,949.12
2018-08-25T03:23:41.954Z,949.12
2018-08-25T03:24:41.947Z,949.11
2018-08-25T03:25:41.940Z,949.04
2018-08-25T03:26:41.932Z,949.05
2018-08-25T03:27:41.922Z,949.04
2018-08-25T03:28:41.918Z,949.05
2018-08-25T03:29:41.914Z,949.03
2018-08-25T03:30:41.900Z,949.08
2018-08-25T03:31:41.893Z,949.1
2018-08-25T03:32:41.886Z,949.1
2018-08-25T03:33:41.881Z,949.15
2018-08-25T03:34:41.870Z,949.12
2018-08-25T03:35:41.861Z,949.13
2018-08-25T03:36:41.854Z,949.13
2018-08-25T03:37:41.847Z,949.1
2018-08-25T03:38:41.839Z,949.07
2018-08-25T03:39:41.831Z,949.1
2018-08-25T03:40:41.824Z,949.12
2018-08-25T03:41:41.813Z,949.11
2018-08-25T03:42:41.808Z,949.13
2018-08-25T03:43:41.799Z,949.12
2018-08-25T03:44:41.793Z,949.13
2018-08-25T03:45:41.784Z,949.14
2018-08-25T03:46:41.775Z,949.13
2018-08-25T03:47:41.768Z,949.13
2018-08-25T03:48:41.759Z,949.15
2018-08-25T03:49:41.752Z,949.14
2018-08-25T03:50:41.744Z,949.16
2018-08-25T03:51:41.736Z,949.14
2018-08-25T03:52:41.728Z,949.15
2018-08-25T03:53:41.719Z,949.12
2018-08-25T03:54:41.712Z,949.14
2018-08-25T03:55:41.704Z,949.13
2018-08-25T03:56:41.696Z,949.06
2018-08-25T03:57:41.694Z,949.12
2018-08-25T03:58:41.680Z,949.09
2018-08-25T03:59:41.674Z,949.05
2018-08-25T04:00:41.665Z,949.07
2018-08-25T04:01:41.778Z,949.06
2018-08-25T04:02:41.649Z,949.05
2018-08-25T04:03:41.640Z,949.06
2018-08-25T04:04:41.633Z,949.06
2018-08-25T04:05:41.626Z,949.08
2018-08-25T04:06:41.617Z,949.06
2018-08-25T04:07:41.611Z,949.11
2018-08-25T04:08:41.601Z,949.1
2018-08-25T04:09:41.594Z,949.09
2018-08-25T04:10:41.587Z,949.13
2018-08-25T04:11:41.580Z,949.14
2018-08-25T04:12:41.573Z,949.13
2018-08-25T04:13:41.566Z,949.14
2018-08-25T04:14:41.597Z,949.12
2018-08-25T04:15:41.547Z,949.15
2018-08-25T04:16:41.544Z,949.19
2018-08-25T04:17:41.532Z,949.13
2018-08-25T04:18:41.523Z,949.15
2018-08-25T04:19:41.518Z,949.08
2018-08-25T04:20:41.511Z,949.06
2018-08-25T04:21:41.501Z,949.07
2018-08-25T04:22:41.496Z,949.08
2018-08-25T04:23:41.486Z,949.08
2018-08-25T04:24:41.477Z,949.06
2018-08-25T04:25:41.469Z,949.04
2018-08-25T04:26:41.462Z,948.96
2018-08-25T04:27:41.453Z,948.98
2018-08-25T04:28:41.447Z,948.94
2018-08-25T04:29:41.437Z,948.91
2018-08-25T04:30:41.430Z,948.92
2018-08-25T04:31:41.422Z,948.92
2018-08-25T04:32:41.416Z,948.91
2018-08-25T04:33:41.407Z,948.9
2018-08-25T04:34:41.401Z,948.97
2018-08-25T04:35:41.438Z,948.96
2018-08-25T04:36:41.383Z,949.02
2018-08-25T04:37:41.376Z,949
2018-08-25T04:38:41.369Z,949.07
2018-08-25T04:39:41.361Z,949.01
2018-08-25T04:40:41.352Z,949
2018-08-25T04:41:41.345Z,948.98
2018-08-25T04:42:41.338Z,948.98
2018-08-25T04:43:41.331Z,948.98
2018-08-25T04:44:41.320Z,948.99
2018-08-25T04:45:41.314Z,949.03
2018-08-25T04:46:41.305Z,949.02
2018-08-25T04:47:41.296Z,949.02
2018-08-25T04:48:41.290Z,949.03
2018-08-25T04:49:41.283Z,949.05
2018-08-25T04:50:41.274Z,949.08
2018-08-25T04:51:41.266Z,949.06
2018-08-25T04:52:41.259Z,949.06
2018-08-25T04:53:41.252Z,949.1
2018-08-25T04:54:41.241Z,949.08
2018-08-25T04:55:41.234Z,949.09
2018-08-25T04:56:41.226Z,949.07
2018-08-25T04:57:41.220Z,949.08
2018-08-25T04:58:41.211Z,949.08
2018-08-25T04:59:41.204Z,949.08
2018-08-25T05:00:41.197Z,949.07
2018-08-25T05:01:41.237Z,949.12
2018-08-25T05:02:41.179Z,949.14
2018-08-25T05:03:41.173Z,949.12
2018-08-25T05:04:41.166Z,949.16
2018-08-25T05:05:41.157Z,949.17
2018-08-25T05:06:41.159Z,949.17
2018-08-25T05:07:41.145Z,949.2
2018-08-25T05:08:41.137Z,949.24
2018-08-25T05:09:41.125Z,949.3
2018-08-25T05:10:41.125Z,949.29
2018-08-25T05:11:41.111Z,949.29
2018-08-25T05:12:41.103Z,949.32
2018-08-25T05:13:41.104Z,949.3
2018-08-25T05:14:41.096Z,949.31
2018-08-25T05:15:41.081Z,949.34
2018-08-25T05:16:41.072Z,949.34
2018-08-25T05:17:41.067Z,949.35
2018-08-25T05:18:41.058Z,949.31
2018-08-25T05:19:41.051Z,949.33
2018-08-25T05:20:41.041Z,949.27
2018-08-25T05:21:41.036Z,949.28
2018-08-25T05:22:41.028Z,949.26
2018-08-25T05:23:41.023Z,949.31
2018-08-25T05:24:41.012Z,949.31
2018-08-25T05:25:41.005Z,949.35
2018-08-25T05:26:40.998Z,949.42
2018-08-25T05:27:40.998Z,949.4
2018-08-25T05:28:40.986Z,949.4
2018-08-25T05:29:40.975Z,949.42
2018-08-25T05:30:40.969Z,949.4
2018-08-25T05:31:40.963Z,949.39
2018-08-25T05:32:40.952Z,949.39
2018-08-25T05:33:40.946Z,949.42
2018-08-25T05:34:40.939Z,949.42
2018-08-25T05:35:40.991Z,949.36
2018-08-25T05:36:40.924Z,949.42
2018-08-25T05:37:40.916Z,949.4
2018-08-25T05:38:40.909Z,949.4
2018-08-25T05:39:40.901Z,949.43
2018-08-25T05:40:40.896Z,949.44
2018-08-25T05:41:40.890Z,949.44
2018-08-25T05:42:40.880Z,949.43
2018-08-25T05:43:40.872Z,949.44
2018-08-25T05:44:40.868Z,949.44
2018-08-25T05:45:40.860Z,949.48
2018-08-25T05:46:40.850Z,949.4
2018-08-25T05:47:40.842Z,949.41
2018-08-25T05:48:40.836Z,949.42
2018-08-25T05:49:40.828Z,949.42
2018-08-25T05:50:40.823Z,949.44
2018-08-25T05:51:40.814Z,949.46
2018-08-25T05:52:40.816Z,949.44
2018-08-25T05:53:40.800Z,949.44
2018-08-25T05:54:40.792Z,949.48
2018-08-25T05:55:40.784Z,949.49
2018-08-25T05:56:40.781Z,949.51
2018-08-25T05:57:40.779Z,949.49
2018-08-25T05:58:40.769Z,949.5
2018-08-25T05:59:40.757Z,949.42
2018-08-25T06:00:40.750Z,949.48
2018-08-25T06:01:40.741Z,949.46
2018-08-25T06:02:40.736Z,949.44
2018-08-25T06:03:40.728Z,949.46
2018-08-25T06:04:40.723Z,949.5
2018-08-25T06:05:40.713Z,949.47
2018-08-25T06:06:40.771Z,949.47
2018-08-25T06:07:40.699Z,949.46
2018-08-25T06:08:40.692Z,949.45
2018-08-25T06:09:40.685Z,949.48
2018-08-25T06:10:40.685Z,949.49
2018-08-25T06:11:40.673Z,949.42
2018-08-25T06:12:40.665Z,949.4
2018-08-25T06:13:40.657Z,949.38
2018-08-25T06:14:40.651Z,949.4
2018-08-25T06:15:40.643Z,949.44
2018-08-25T06:16:40.636Z,949.38
2018-08-25T06:17:40.718Z,949.37
2018-08-25T06:18:40.623Z,949.38
2018-08-25T06:19:40.617Z,949.38
2018-08-25T06:20:40.613Z,949.37
2018-08-25T06:21:40.603Z,949.35
2018-08-25T06:22:40.600Z,949.4
2018-08-25T06:23:40.588Z,949.41
2018-08-25T06:24:40.583Z,949.44
2018-08-25T06:25:40.576Z,949.41
2018-08-25T06:26:40.571Z,949.41
2018-08-25T06:27:40.566Z,949.46
2018-08-25T06:28:40.555Z,949.41
2018-08-25T06:29:40.608Z,949.37
2018-08-25T06:30:40.541Z,949.37
2018-08-25T06:31:40.537Z,949.4
2018-08-25T06:32:40.530Z,949.44
2018-08-25T06:33:40.523Z,949.44
2018-08-25T06:34:40.517Z,949.44
2018-08-25T06:35:40.509Z,949.45
2018-08-25T06:36:40.539Z,949.43
2018-08-25T06:37:40.497Z,949.45
2018-08-25T06:38:40.491Z,949.4
2018-08-25T06:39:40.485Z,949.43
2018-08-25T06:40:40.477Z,949.39
2018-08-25T06:41:40.474Z,949.44
2018-08-25T06:42:40.523Z,949.42
2018-08-25T06:43:40.579Z,949.43
2018-08-25T06:44:40.455Z,949.46
2018-08-25T06:45:40.449Z,949.47
2018-08-25T06:46:40.442Z,949.48
2018-08-25T06:47:40.437Z,949.49
2018-08-25T06:48:40.431Z,949.53
2018-08-25T06:49:40.424Z,949.53
2018-08-25T06:50:40.419Z,949.61
2018-08-25T06:51:40.413Z,949.54
2018-08-25T06:52:40.408Z,949.56
2018-08-25T06:53:40.403Z,949.53
2018-08-25T06:54:40.398Z,949.53
2018-08-25T06:55:40.391Z,949.53
2018-08-25T06:56:40.385Z,949.53
2018-08-25T06:57:40.382Z,949.55
2018-08-25T06:58:40.375Z,949.57
2018-08-25T06:59:40.450Z,949.57
2018-08-25T07:00:40.363Z,949.59
2018-08-25T07:01:40.360Z,949.6
2018-08-25T07:02:40.352Z,949.58
2018-08-25T07:03:40.347Z,949.56
2018-08-25T07:04:40.346Z,949.57
2018-08-25T07:05:40.337Z,949.54
2018-08-25T07:06:40.331Z,949.59
2018-08-25T07:07:40.325Z,949.6
2018-08-25T07:08:40.321Z,949.55
2018-08-25T07:09:40.316Z,949.56
2018-08-25T07:10:40.310Z,949.61
2018-08-25T07:11:40.304Z,949.57
2018-08-25T07:12:40.299Z,949.54
2018-08-25T07:13:40.293Z,949.57
2018-08-25T07:14:40.291Z,949.57
2018-08-25T07:15:40.283Z,949.55
2018-08-25T07:16:40.278Z,949.61
2018-08-25T07:17:40.273Z,949.58
2018-08-25T07:18:40.271Z,949.63
2018-08-25T07:19:40.262Z,949.65
2018-08-25T07:20:40.259Z,949.62
2018-08-25T07:21:40.253Z,949.64
2018-08-25T07:22:40.247Z,949.65
2018-08-25T07:23:40.241Z,949.7
2018-08-25T07:24:40.238Z,949.69
2018-08-25T07:25:40.258Z,949.67
2018-08-25T07:26:40.233Z,949.7
2018-08-25T07:27:40.223Z,949.7
2018-08-25T07:28:40.216Z,949.74
2018-08-25T07:29:40.209Z,949.75
2018-08-25T07:30:40.209Z,949.8
2018-08-25T07:31:40.200Z,949.74
2018-08-25T07:32:40.195Z,949.79
2018-08-25T07:33:40.190Z,949.82
2018-08-25T07:34:40.185Z,949.8
2018-08-25T07:35:40.180Z,949.82
2018-08-25T07:36:40.174Z,949.74
2018-08-25T07:37:40.171Z,949.73
2018-08-25T07:38:40.166Z,949.76
2018-08-25T07:39:40.159Z,949.75
2018-08-25T07:40:40.154Z,949.72
2018-08-25T07:41:40.151Z,949.69
2018-08-25T07:42:40.145Z,949.76
2018-08-25T07:43:40.140Z,949.73
2018-08-25T07:44:40.135Z,949.75
2018-08-25T07:45:40.133Z,949.71
2018-08-25T07:46:40.124Z,949.68
2018-08-25T07:47:40.120Z,949.7
2018-08-25T07:48:40.190Z,949.73
2018-08-25T07:49:40.240Z,949.7
2018-08-25T07:50:40.105Z,949.69
2018-08-25T07:51:40.100Z,949.7
2018-08-25T07:52:40.096Z,949.63
2018-08-25T07:53:40.109Z,949.7
2018-08-25T07:54:40.085Z,949.69
2018-08-25T07:55:40.081Z,949.67
2018-08-25T07:56:40.077Z,949.63
2018-08-25T07:57:40.070Z,949.64
2018-08-25T07:58:40.141Z,949.66
2018-08-25T07:59:40.061Z,949.65
2018-08-25T08:00:40.057Z,949.64
2018-08-25T08:01:40.052Z,949.68
2018-08-25T08:02:40.049Z,949.68
2018-08-25T08:03:40.044Z,949.71
2018-08-25T08:04:40.039Z,949.7
2018-08-25T08:05:40.164Z,949.74
2018-08-25T08:06:40.028Z,949.71
2018-08-25T08:07:40.024Z,949.71
2018-08-25T08:08:40.022Z,949.73
2018-08-25T08:09:40.022Z,949.76
2018-08-25T08:10:40.011Z,949.8
2018-08-25T08:11:40.033Z,949.77
2018-08-25T08:12:40.001Z,949.78
2018-08-25T08:13:39.997Z,949.82
2018-08-25T08:14:39.991Z,949.86
2018-08-25T08:15:39.988Z,949.78
2018-08-25T08:16:39.981Z,949.79
2018-08-25T08:17:39.978Z,949.77
2018-08-25T08:18:39.973Z,949.81
2018-08-25T08:19:39.967Z,949.85
2018-08-25T08:20:39.963Z,949.76
2018-08-25T08:21:39.960Z,949.73
2018-08-25T08:22:39.956Z,949.8
2018-08-25T08:23:39.952Z,949.77
2018-08-25T08:24:39.944Z,949.78
2018-08-25T08:25:39.941Z,949.8
2018-08-25T08:26:39.936Z,949.74
2018-08-25T08:27:39.932Z,949.79
2018-08-25T08:28:39.927Z,949.78
2018-08-25T08:29:39.923Z,949.79
2018-08-25T08:30:39.918Z,949.75
2018-08-25T08:31:39.914Z,949.74
2018-08-25T08:32:39.908Z,949.77
2018-08-25T08:33:40.004Z,949.78
2018-08-25T08:34:39.898Z,949.77
2018-08-25T08:35:39.898Z,949.78
2018-08-25T08:36:39.893Z,949.76
2018-08-25T08:37:39.887Z,949.82
2018-08-25T08:38:39.886Z,949.82
2018-08-25T08:39:39.984Z,949.79
2018-08-25T08:40:39.877Z,949.82
2018-08-25T08:41:39.872Z,949.89
2018-08-25T08:42:39.867Z,949.87
2018-08-25T08:43:39.868Z,949.89
2018-08-25T08:44:39.861Z,949.85
2018-08-25T08:45:39.857Z,949.84
2018-08-25T08:46:39.858Z,949.85
2018-08-25T08:47:39.975Z,949.87
2018-08-25T08:48:39.847Z,949.99
2018-08-25T08:49:46.597Z,949.98
2018-08-25T08:50:39.839Z,949.88
2018-08-25T08:51:39.836Z,949.86
2018-08-25T08:52:39.832Z,949.82
2018-08-25T08:53:39.829Z,949.86
2018-08-25T08:54:39.826Z,949.78
2018-08-25T08:55:39.823Z,949.8
2018-08-25T08:56:39.819Z,949.74
2018-08-25T08:57:39.815Z,949.81
2018-08-25T08:58:39.812Z,949.91
2018-08-25T08:59:39.809Z,949.75
2018-08-25T09:00:39.809Z,949.78
2018-08-25T09:01:39.802Z,949.79
2018-08-25T09:02:39.799Z,949.79
2018-08-25T09:03:39.796Z,949.73
2018-08-25T09:04:39.792Z,949.7
2018-08-25T09:05:39.790Z,949.79
2018-08-25T09:06:39.786Z,949.64
2018-08-25T09:07:39.783Z,949.68
2018-08-25T09:08:39.779Z,949.76
2018-08-25T09:09:39.776Z,949.74
2018-08-25T09:10:39.773Z,949.76
2018-08-25T09:11:39.785Z,949.76
2018-08-25T09:12:39.767Z,949.8
2018-08-25T09:13:39.765Z,949.79
2018-08-25T09:14:39.761Z,949.71
2018-08-25T09:15:39.758Z,949.72
2018-08-25T09:16:39.758Z,949.74
2018-08-25T09:17:39.753Z,949.7
2018-08-25T09:18:39.749Z,949.72
2018-08-25T09:19:39.749Z,949.78
2018-08-25T09:20:39.745Z,949.76
2018-08-25T09:21:39.740Z,949.77
2018-08-25T09:22:39.739Z,949.68
2018-08-25T09:23:39.735Z,949.68
2018-08-25T09:24:39.732Z,949.69
2018-08-25T09:25:39.729Z,949.76
2018-08-25T09:26:39.727Z,949.74
2018-08-25T09:27:39.724Z,949.73
2018-08-25T09:28:39.720Z,949.81
2018-08-25T09:29:39.716Z,949.75
2018-08-25T09:30:39.713Z,949.74
2018-08-25T09:31:39.714Z,949.71
2018-08-25T09:32:39.713Z,949.71
2018-08-25T09:33:39.706Z,949.7
2018-08-25T09:34:39.703Z,949.68
2018-08-25T09:35:39.720Z,949.67
2018-08-25T09:36:39.856Z,949.64
2018-08-25T09:37:39.695Z,949.66
2018-08-25T09:38:39.691Z,949.63
2018-08-25T09:39:39.689Z,949.62
2018-08-25T09:40:39.686Z,949.57
2018-08-25T09:41:39.687Z,949.66
2018-08-25T09:42:39.682Z,949.59
2018-08-25T09:43:39.677Z,949.69
2018-08-25T09:44:39.677Z,949.71
2018-08-25T09:45:39.672Z,949.66
2018-08-25T09:46:39.670Z,949.58
2018-08-25T09:47:39.666Z,949.54
2018-08-25T09:48:39.666Z,949.58
2018-08-25T09:49:39.662Z,949.58
2018-08-25T09:50:39.660Z,949.58
2018-08-25T09:51:39.658Z,949.5
2018-08-25T09:52:39.654Z,949.53
2018-08-25T09:53:39.804Z,949.53
2018-08-25T09:54:39.650Z,949.5
2018-08-25T09:55:39.648Z,949.49
2018-08-25T09:56:39.645Z,949.45
2018-08-25T09:57:39.642Z,949.45
2018-08-25T09:58:39.638Z,949.43
2018-08-25T09:59:39.636Z,949.5
2018-08-25T10:00:39.633Z,949.49
2018-08-25T10:01:39.629Z,949.51
2018-08-25T10:02:39.627Z,949.48
2018-08-25T10:03:39.624Z,949.54
2018-08-25T10:04:39.622Z,949.51
2018-08-25T10:05:39.617Z,949.5
2018-08-25T10:06:39.633Z,949.47
2018-08-25T10:07:39.615Z,949.49
2018-08-25T10:08:39.607Z,949.44
2018-08-25T10:09:39.604Z,949.48
2018-08-25T10:10:39.600Z,949.48
2018-08-25T10:11:39.599Z,949.49
2018-08-25T10:12:39.594Z,949.47
2018-08-25T10:13:39.589Z,949.43
2018-08-25T10:14:39.585Z,949.43
2018-08-25T10:15:39.581Z,949.41
2018-08-25T10:16:39.591Z,949.43
2018-08-25T10:17:39.574Z,949.42
2018-08-25T10:18:39.570Z,949.37
2018-08-25T10:19:39.566Z,949.39
2018-08-25T10:20:39.563Z,949.4
2018-08-25T10:21:39.560Z,949.36
2018-08-25T10:22:39.554Z,949.36
2018-08-25T10:23:39.641Z,949.36
2018-08-25T10:24:39.547Z,949.34
2018-08-25T10:25:39.541Z,949.38
2018-08-25T10:26:39.537Z,949.35
2018-08-25T10:27:39.533Z,949.35
2018-08-25T10:28:39.532Z,949.32
2018-08-25T10:29:39.525Z,949.31
2018-08-25T10:30:39.525Z,949.28
2018-08-25T10:31:39.523Z,949.33
2018-08-25T10:32:39.511Z,949.34
2018-08-25T10:33:39.508Z,949.36
2018-08-25T10:34:39.501Z,949.36
2018-08-25T10:35:39.535Z,949.37
2018-08-25T10:36:39.494Z,949.35
2018-08-25T10:37:39.494Z,949.33
2018-08-25T10:38:39.485Z,949.31
2018-08-25T10:39:39.482Z,949.3
2018-08-25T10:40:39.475Z,949.32
2018-08-25T10:41:39.551Z,949.35
2018-08-25T10:42:39.470Z,949.33
2018-08-25T10:43:39.461Z,949.34
2018-08-25T10:44:39.458Z,949.33
2018-08-25T10:45:39.453Z,949.32
2018-08-25T10:46:39.447Z,949.33
2018-08-25T10:47:39.444Z,949.3
2018-08-25T10:48:39.485Z,949.28
2018-08-25T10:49:39.435Z,949.29
2018-08-25T10:50:39.428Z,949.24
2018-08-25T10:51:39.424Z,949.32
2018-08-25T10:52:39.420Z,949.28
2018-08-25T10:53:39.414Z,949.3
2018-08-25T10:54:39.411Z,949.24
2018-08-25T10:55:39.405Z,949.3
2018-08-25T10:56:39.404Z,949.31
2018-08-25T10:57:39.395Z,949.35
2018-08-25T10:58:39.390Z,949.31
2018-08-25T10:59:39.390Z,949.31
2018-08-25T11:00:39.602Z,949.4
2018-08-25T11:01:39.374Z,949.35
2018-08-25T11:02:39.369Z,949.39
2018-08-25T11:03:39.364Z,949.39
2018-08-25T11:04:39.361Z,949.4
2018-08-25T11:05:39.354Z,949.41
2018-08-25T11:06:39.348Z,949.4
2018-08-25T11:07:39.343Z,949.4
2018-08-25T11:08:39.341Z,949.45
2018-08-25T11:09:39.332Z,949.44
2018-08-25T11:10:39.329Z,949.48
2018-08-25T11:11:39.323Z,949.51
2018-08-25T11:12:39.316Z,949.51
2018-08-25T11:13:39.319Z,949.53
2018-08-25T11:14:39.304Z,949.56
2018-08-25T11:15:39.300Z,949.58
2018-08-25T11:16:39.300Z,949.58
2018-08-25T11:17:39.289Z,949.6
2018-08-25T11:18:39.282Z,949.6
2018-08-25T11:19:39.282Z,949.63
2018-08-25T11:20:39.273Z,949.64
2018-08-25T11:21:39.266Z,949.65
2018-08-25T11:22:39.263Z,949.73
2018-08-25T11:23:39.293Z,949.66
2018-08-25T11:24:39.249Z,949.73
2018-08-25T11:25:39.243Z,949.78
2018-08-25T11:26:39.239Z,949.72
2018-08-25T11:27:39.233Z,949.7
2018-08-25T11:28:39.227Z,949.69
2018-08-25T11:29:39.220Z,949.73
2018-08-25T11:30:39.216Z,949.76
2018-08-25T11:31:39.212Z,949.77
2018-08-25T11:32:39.205Z,949.76
2018-08-25T11:33:39.202Z,949.77
2018-08-25T11:34:39.194Z,949.77
2018-08-25T11:35:39.189Z,949.74
2018-08-25T11:36:39.181Z,949.76
2018-08-25T11:37:39.233Z,949.7
2018-08-25T11:38:39.171Z,949.67
2018-08-25T11:39:39.164Z,949.66
2018-08-25T11:40:39.161Z,949.69
2018-08-25T11:41:39.157Z,949.74
2018-08-25T11:42:39.150Z,949.72
2018-08-25T11:43:39.144Z,949.71
2018-08-25T11:44:39.138Z,949.73
2018-08-25T11:45:39.132Z,949.65
2018-08-25T11:46:39.126Z,949.68
2018-08-25T11:47:39.128Z,949.67
2018-08-25T11:48:39.118Z,949.67
2018-08-25T11:49:39.111Z,949.67
2018-08-25T11:50:39.106Z,949.72
2018-08-25T11:51:39.100Z,949.65
2018-08-25T11:52:39.096Z,949.67
2018-08-25T11:53:39.091Z,949.65
2018-08-25T11:54:39.088Z,949.62
2018-08-25T11:55:39.085Z,949.66
2018-08-25T11:56:39.080Z,949.59
2018-08-25T11:57:39.072Z,949.59
2018-08-25T11:58:39.069Z,949.58
2018-08-25T11:59:39.065Z,949.58
2018-08-25T12:00:39.060Z,949.56
2018-08-25T12:01:39.054Z,949.51
2018-08-25T12:02:39.050Z,949.48
2018-08-25T12:03:39.216Z,949.45
2018-08-25T12:04:39.041Z,949.45
2018-08-25T12:05:39.036Z,949.47
2018-08-25T12:06:39.032Z,949.44
2018-08-25T12:07:39.037Z,949.44
2018-08-25T12:08:39.025Z,949.44
2018-08-25T12:09:39.129Z,949.41
2018-08-25T12:10:39.018Z,949.47
2018-08-25T12:11:39.013Z,949.46
2018-08-25T12:12:39.010Z,949.53
2018-08-25T12:13:39.004Z,949.54
2018-08-25T12:14:38.995Z,949.5
2018-08-25T12:15:38.994Z,949.56
2018-08-25T12:16:38.990Z,949.57
2018-08-25T12:17:38.984Z,949.59
2018-08-25T12:18:39.020Z,949.59
2018-08-25T12:19:38.973Z,949.6
2018-08-25T12:20:38.967Z,949.62
2018-08-25T12:21:38.964Z,949.6
2018-08-25T12:22:38.964Z,949.6
2018-08-25T12:23:38.958Z,949.63
2018-08-25T12:24:38.950Z,949.65
2018-08-25T12:25:38.945Z,949.64
2018-08-25T12:26:38.940Z,949.62
2018-08-25T12:27:38.936Z,949.66
2018-08-25T12:28:38.933Z,949.65
2018-08-25T12:29:38.928Z,949.57
2018-08-25T12:30:39.069Z,949.58
2018-08-25T12:31:38.918Z,949.63